Time;durP1;ratioP1;P1;durP2;ratioP2;P2;SDS_P1;SDS_P2;PMS_P1;PMS_P2;Temp;Humidity;BMP_temperature;BMP_pressure;BME280_temperature;BME280_humidity;BME280_pressure;Samples;Min_cycle;Max_cycle;Signal;HPM_P1;HPM_P2
2024/02/21 00:01:04;;;;;;;12.68;3.88;;;;;;;;;;5089600;28;20032;-80
2024/02/21 00:03:29;;;;;;;7.07;2.88;;;2.80;99.90;;;;;;5088778;28;20031;-80
2024/02/21 00:05:55;;;;;;;4.22;3.30;;;;;;;;;;5088962;28;20481;-81
2024/02/21 00:08:21;;;;;;;3.10;2.00;;;;;;;;;;5088043;28;20031;-80
2024/02/21 00:10:48;;;;;;;2.85;1.60;;;;;;;;;;5080863;28;20036;-81
2024/02/21 00:13:13;;;;;;;22.42;3.22;;;3.30;99.90;;;;;;5087919;28;20063;-80
2024/02/21 00:15:39;;;;;;;4.03;3.17;;;;;;;;;;5080495;28;20055;-81
2024/02/21 00:18:05;;;;;;;5.18;2.92;;;;;;;;;;5083536;28;20380;-81
2024/02/21 00:20:31;;;;;;;19.88;3.80;;;3.20;99.90;;;;;;5083425;28;20028;-80
2024/02/21 00:22:57;;;;;;;14.13;3.72;;;;;;;;;;5087946;28;20031;-80
2024/02/21 00:25:23;;;;;;;6.95;2.70;;;;;;;;;;5088452;28;20115;-81
2024/02/21 00:27:49;;;;;;;3.85;2.80;;;;;;;;;;5086927;28;20038;-81
2024/02/21 00:30:15;;;;;;;4.57;2.53;;;;;;;;;;5085436;28;20028;-80
2024/02/21 00:32:41;;;;;;;5.53;3.13;;;2.80;99.90;;;;;;5086944;28;20028;-80
2024/02/21 00:35:07;;;;;;;5.70;3.13;;;;;;;;;;5088163;28;20031;-81
2024/02/21 00:37:32;;;;;;;7.53;3.35;;;3.00;99.90;;;;;;5087463;28;20020;-80
2024/02/21 00:39:58;;;;;;;17.83;4.35;;;;;;;;;;5088313;28;20341;-81
2024/02/21 00:42:24;;;;;;;6.00;2.70;;;;;;;;;;5087552;28;20102;-80
2024/02/21 00:44:50;;;;;;;9.77;4.72;;;;;;;;;;5088488;28;20134;-80
2024/02/21 00:47:16;;;;;;;4.85;3.92;;;;;;;;;;5087366;28;20052;-80
2024/02/21 00:49:42;;;;;;;5.95;3.58;;;;;;;;;;5067882;28;20452;-81
2024/02/21 00:52:08;;;;;;;4.50;2.53;;;;;;;;;;5082030;28;20028;-80
2024/02/21 00:54:34;;;;;;;4.55;2.58;;;;;;;;;;5068729;28;20025;-80
2024/02/21 00:57:00;;;;;;;13.40;2.90;;;;;;;;;;5068967;28;20082;-81
2024/02/21 00:59:26;;;;;;;6.40;3.25;;;;;;;;;;5069970;28;20023;-80
2024/02/21 01:01:52;;;;;;;6.78;2.67;;;;;;;;;;5069544;28;20024;-80
2024/02/21 01:04:18;;;;;;;9.38;4.13;;;;;;;;;;5068889;28;20031;-81
2024/02/21 01:06:44;;;;;;;11.07;3.28;;;;;;;;;;5067706;28;20190;-81
2024/02/21 01:09:11;;;;;;;6.70;3.00;;;2.40;99.90;;;;;;5068963;28;20503;-80
2024/02/21 01:11:37;;;;;;;5.22;2.75;;;;;;;;;;5068680;28;20032;-80
2024/02/21 01:14:03;;;;;;;8.75;2.53;;;;;;;;;;5069294;28;20032;-80
2024/02/21 01:16:29;;;;;;;7.65;4.05;;;;;;;;;;5068321;28;20382;-81
2024/02/21 01:18:55;;;;;;;4.53;2.47;;;;;;;;;;5068533;28;20055;-81
2024/02/21 01:21:21;;;;;;;9.00;4.95;;;;;;;;;;5068765;28;20493;-81
2024/02/21 01:23:47;;;;;;;5.30;1.80;;;;;;;;;;5069097;28;20027;-81
2024/02/21 01:26:15;;;;;;;3.15;2.30;;;;;;;;;;5068551;28;20137;-80
2024/02/21 01:28:41;;;;;;;6.68;2.88;;;;;;;;;;5069088;28;20370;-81
2024/02/21 01:31:07;;;;;;;6.75;3.50;;;2.20;99.90;;;;;;5068439;28;20024;-80
2024/02/21 01:33:34;;;;;;;3.38;2.55;;;2.20;99.90;;;;;;5068811;28;20025;-80
2024/02/21 01:36:03;;;;;;;;;;;2.30;99.90;;;;;;5069773;28;20162;-80
2024/02/21 01:38:29;;;;;;;7.90;2.88;;;1.90;99.90;;;;;;5069245;28;20395;-81
2024/02/21 01:40:56;;;;;;;4.07;3.00;;;;;;;;;;5067801;28;20025;-80
2024/02/21 01:43:22;;;;;;;2.40;2.17;;;;;;;;;;5068796;28;20024;-80
2024/02/21 01:45:54;;;;;;;4.07;2.85;;;2.40;99.90;;;;;;5069301;28;20104;-80
2024/02/21 01:48:22;;;;;;;4.40;2.72;;;2.50;99.90;;;;;;5069342;28;20037;-80
2024/02/21 01:50:49;;;;;;;6.47;2.78;;;2.60;99.90;;;;;;5080935;28;20021;-80
2024/02/21 01:53:19;;;;;;;3.97;2.58;;;2.70;99.90;;;;;;5069282;28;20055;-81
2024/02/21 01:55:45;;;;;;;7.28;3.30;;;2.70;99.90;;;;;;5070831;28;20024;-80
2024/02/21 01:58:15;;;;;;;6.28;3.30;;;5.90;99.90;;;;;;5071752;28;20564;-80
2024/02/21 02:00:45;;;;;;;4.20;2.92;;;2.60;99.90;;;;;;5089614;28;20390;-80
2024/02/21 02:03:16;;;;;;;6.60;4.32;;;2.50;99.90;;;;;;5091779;28;20031;-81
2024/02/21 02:05:52;;;;;;;3.80;2.70;;;;;;;;;;5071913;28;20397;-80
2024/02/21 02:08:19;;;;;;;6.50;3.78;;;2.40;99.90;;;;;;5068409;28;20493;-80
2024/02/21 02:10:45;;;;;;;4.05;2.75;;;2.50;99.90;;;;;;5072106;28;20009;-80
2024/02/21 02:13:12;;;;;;;5.70;3.00;;;;;;;;;;5076540;28;20032;-81
2024/02/21 02:15:48;;;;;;;3.72;2.78;;;2.40;99.90;;;;;;5074009;28;20099;-80
2024/02/21 02:18:15;;;;;;;6.82;2.35;;;2.40;99.90;;;;;;5079028;28;20028;-80
2024/02/21 02:20:41;;;;;;;4.65;3.08;;;;;;;;;;5071249;28;20024;-81
2024/02/21 02:23:16;;;;;;;4.43;2.55;;;2.40;99.90;;;;;;5071595;28;20036;-80
2024/02/21 02:25:42;;;;;;;5.10;4.25;;;2.50;99.90;;;;;;5072411;28;20032;-80
2024/02/21 02:28:08;;;;;;;6.30;2.85;;;;;;;;;;5079476;28;20109;-80
2024/02/21 02:30:35;;;;;;;11.00;3.25;;;;;;;;;;5090452;28;20062;-80
2024/02/21 02:33:04;;;;;;;;;;;2.40;99.90;;;;;;5090531;28;20584;-80
2024/02/21 02:35:30;;;;;;;4.63;3.28;;;;;;;;;;5085017;28;20024;-80
2024/02/21 02:37:56;;;;;;;7.05;2.45;;;;;;;;;;5091264;28;20020;-81
2024/02/21 02:40:22;;;;;;;4.82;2.78;;;;;;;;;;5088068;28;20497;-80
2024/02/21 02:42:49;;;;;;;5.07;3.13;;;2.70;99.90;;;;;;5090265;28;20027;-80
2024/02/21 02:45:15;;;;;;;5.27;2.90;;;2.80;99.90;;;;;;5079476;28;20588;-80
2024/02/21 02:47:42;;;;;;;6.72;2.38;;;;;;;;;;5088904;28;20078;-80
2024/02/21 02:50:08;;;;;;;19.02;4.72;;;;;;;;;;5070746;28;20120;-80
2024/02/21 02:52:34;;;;;;;6.70;2.95;;;;;;;;;;5086086;28;20039;-81
2024/02/21 02:55:01;;;;;;;3.53;2.13;;;;;;;;;;5090613;28;20024;-80
2024/02/21 02:57:27;;;;;;;3.50;2.72;;;;;;;;;;5086507;28;20415;-80
2024/02/21 02:59:53;;;;;;;3.33;2.78;;;;;;;;;;5070814;28;20013;-80
2024/02/21 03:02:19;;;;;;;2.42;1.75;;;2.40;99.90;;;;;;5072711;28;20103;-79
2024/02/21 03:04:45;;;;;;;10.43;3.97;;;;;;;;;;5090390;28;20114;-81
2024/02/21 03:07:11;;;;;;;3.63;2.42;;;;;;;;;;5086399;28;20052;-80
2024/02/21 03:09:40;;;;;;;10.45;4.00;;;2.60;99.90;;;;;;5090397;28;20031;-80
2024/02/21 03:12:06;;;;;;;3.50;2.25;;;;;;;;;;5089080;28;20031;-81
2024/02/21 03:14:32;;;;;;;5.30;2.17;;;1.60;99.90;;;;;;5089782;28;20107;-81
2024/02/21 03:16:59;;;;;;;3.60;2.72;;;;;;;;;;5085917;28;20082;-80
2024/02/21 03:19:25;;;;;;;3.75;2.30;;;;;;;;;;5070001;28;20074;-80
2024/02/21 03:21:51;;;;;;;5.93;3.10;;;;;;;;;;5070209;28;20037;-80
2024/02/21 03:24:17;;;;;;;5.25;2.65;;;;;;;;;;5070515;28;20028;-80
2024/02/21 03:26:43;;;;;;;2.67;2.47;;;;;;;;;;5070271;28;20098;-80
2024/02/21 03:29:10;;;;;;;4.28;2.58;;;2.60;99.90;;;;;;5079314;28;20562;-81
2024/02/21 03:31:36;;;;;;;6.63;4.07;;;;;;;;;;5089405;28;20020;-81
2024/02/21 03:34:02;;;;;;;6.93;2.70;;;;;;;;;;5079187;28;20398;-80
2024/02/21 03:36:28;;;;;;;2.90;2.58;;;2.60;99.90;;;;;;5069875;28;20686;-80
2024/02/21 03:38:55;;;;;;;3.88;1.77;;;2.60;99.90;;;;;;5079377;28;20292;-80
2024/02/21 03:41:21;;;;;;;7.25;4.18;;;;;;;;;;5089117;28;20064;-81
2024/02/21 03:43:46;;;;;;;3.60;1.85;;;;;;;;;;5081048;28;20040;-80
2024/02/21 03:46:12;;;;;;;3.92;3.00;;;;;;;;;;5085229;28;20028;-80
2024/02/21 03:48:38;;;;;;;4.80;3.05;;;;;;;;;;5080404;28;20119;-80
2024/02/21 03:51:05;;;;;;;5.28;2.85;;;3.10;99.90;;;;;;5086874;28;20020;-81
2024/02/21 03:53:31;;;;;;;4.43;3.30;;;2.80;99.90;;;;;;5079848;28;20062;-80
2024/02/21 03:55:59;;;;;;;10.48;4.75;;;;;;;;;;5089057;28;20393;-80
2024/02/21 03:58:25;;;;;;;5.93;3.03;;;3.10;99.90;;;;;;5089432;28;20036;-81
2024/02/21 04:00:51;;;;;;;4.50;3.08;;;3.20;99.90;;;;;;5085304;28;20065;-80
2024/02/21 04:03:17;;;;;;;4.13;2.38;;;;;;;;;;5069826;28;20037;-80
2024/02/21 04:05:43;;;;;;;8.55;3.95;;;;;;;;;;5072343;28;20490;-81
2024/02/21 04:08:09;;;;;;;13.00;4.07;;;;;;;;;;5087863;28;20409;-81
2024/02/21 04:10:35;;;;;;;6.35;3.63;;;;;;;;;;5071618;28;20028;-81
2024/02/21 04:13:01;;;;;;;4.65;3.25;;;;;;;;;;5069770;28;20028;-80
2024/02/21 04:15:27;;;;;;;12.73;3.08;;;;;;;;;;5068773;28;20024;-80
2024/02/21 04:17:53;;;;;;;16.05;3.33;;;;;;;;;;5069717;28;20123;-81
2024/02/21 04:20:19;;;;;;;9.52;3.28;;;;;;;;;;5084582;28;20501;-80
2024/02/21 04:22:45;;;;;;;8.15;3.08;;;;;;;;;;5082092;28;20113;-80
2024/02/21 04:25:12;;;;;;;6.07;3.92;;;2.90;99.90;;;;;;5072004;28;20027;-80
2024/02/21 04:27:38;;;;;;;5.72;2.45;;;;;;;;;;5069497;28;20113;-81
2024/02/21 04:30:05;;;;;;;4.88;3.63;;;;;;;;;;5070121;28;20052;-80
2024/02/21 04:32:30;;;;;;;3.45;2.88;;;2.90;99.90;;;;;;5069647;28;20028;-80
2024/02/21 04:34:56;;;;;;;5.43;3.85;;;;;;;;;;5069420;28;20031;-81
2024/02/21 04:37:22;;;;;;;3.72;3.17;;;;;;;;;;5069724;28;20036;-80
2024/02/21 04:39:51;;;;;;;4.95;3.17;;;2.70;99.90;;;;;;5069485;28;20104;-80
2024/02/21 04:42:17;;;;;;;10.32;3.85;;;;;;;;;;5068311;28;20425;-80
2024/02/21 04:44:43;;;;;;;8.27;3.88;;;2.60;99.90;;;;;;5070191;28;20024;-80
2024/02/21 04:47:08;;;;;;;8.90;3.60;;;;;;;;;;5068983;28;20032;-81
2024/02/21 04:49:35;;;;;;;8.18;3.78;;;;;;;;;;5069355;28;20019;-80
2024/02/21 04:52:01;;;;;;;7.85;3.45;;;3.10;99.90;;;;;;5069411;28;20109;-80
2024/02/21 04:54:27;;;;;;;4.95;3.05;;;;;;;;;;5069582;28;20029;-80
2024/02/21 04:56:53;;;;;;;4.72;2.80;;;;;;;;;;5078828;28;20024;-80
2024/02/21 04:59:19;;;;;;;9.23;3.22;;;;;;;;;;5071736;28;20021;-81
2024/02/21 05:01:45;;;;;;;6.10;2.30;;;;;;;;;;5069292;28;20041;-80
2024/02/21 05:04:11;;;;;;;2.78;2.17;;;;;;;;;;5070078;28;20438;-80
2024/02/21 05:06:40;;;;;;;13.70;3.92;;;;;;;;;;5068808;28;20052;-80
2024/02/21 05:09:08;;;;;;;4.82;3.15;;;3.40;99.90;;;;;;5069661;28;20060;-81
2024/02/21 05:11:34;;;;;;;6.30;3.60;;;;;;;;;;5069156;28;20025;-80
2024/02/21 05:14:00;;;;;;;6.28;4.07;;;;;;;;;;5069483;28;20033;-80
2024/02/21 05:16:26;;;;;;;5.28;2.67;;;;;;;;;;5068016;28;20032;-80
2024/02/21 05:18:52;;;;;;;6.30;3.00;;;;;;;;;;5073608;28;20028;-80
2024/02/21 05:21:19;;;;;;;3.90;2.90;;;;;;;;;;5088138;28;20030;-81
2024/02/21 05:23:45;;;;;;;4.45;2.53;;;;;;;;;;5070258;28;20545;-80
2024/02/21 05:26:11;;;;;;;3.08;2.63;;;;;;;;;;5068454;28;20031;-80
2024/02/21 05:28:37;;;;;;;9.68;2.45;;;2.90;99.90;;;;;;5088204;28;20035;-80
2024/02/21 05:31:03;;;;;;;4.67;2.80;;;;;;;;;;5091823;28;20100;-80
2024/02/21 05:33:29;;;;;;;9.15;2.92;;;2.80;99.90;;;;;;5087407;28;20281;-80
2024/02/21 05:35:55;;;;;;;5.63;3.35;;;;;;;;;;5091213;28;20024;-80
2024/02/21 05:38:21;;;;;;;9.82;3.50;;;;;;;;;;5090857;28;20020;-80
2024/02/21 05:40:47;;;;;;;6.85;3.50;;;;;;;;;;5091682;28;20595;-80
2024/02/21 05:43:13;;;;;;;11.18;3.85;;;2.90;99.90;;;;;;5090944;28;20032;-80
2024/02/21 05:45:39;;;;;;;7.32;3.75;;;;;;;;;;5091567;28;20032;-80
2024/02/21 05:48:05;;;;;;;6.20;3.65;;;2.60;99.90;;;;;;5091009;28;20036;-81
2024/02/21 05:50:32;;;;;;;9.20;3.58;;;;;;;;;;5091268;28;20024;-81
2024/02/21 05:52:58;;;;;;;2.50;2.28;;;2.80;99.90;;;;;;5080121;28;20039;-80
2024/02/21 05:55:25;;;;;;;5.22;2.58;;;;;;;;;;5091559;28;20028;-81
2024/02/21 05:57:55;;;;;;;5.63;2.10;;;2.90;99.90;;;;;;5091570;28;20065;-80
2024/02/21 06:00:21;;;;;;;3.33;2.42;;;;;;;;;;5090110;28;20035;-80
2024/02/21 06:02:47;;;;;;;7.40;1.65;;;;;;;;;;5090930;28;20020;-80
2024/02/21 06:05:13;;;;;;;9.02;3.90;;;;;;;;;;5091120;28;20408;-80
2024/02/21 06:07:39;;;;;;;8.18;4.78;;;;;;;;;;5086465;28;20048;-80
2024/02/21 06:10:05;;;;;;;12.13;5.35;;;;;;;;;;5089540;28;20028;-80
2024/02/21 06:12:31;;;;;;;7.35;4.10;;;;;;;;;;5089292;28;20028;-80
2024/02/21 06:14:57;;;;;;;4.30;3.58;;;;;;;;;;5087892;28;20113;-81
2024/02/21 06:17:23;;;;;;;7.45;3.90;;;;;;;;;;5083509;28;20046;-80
2024/02/21 06:19:49;;;;;;;9.63;3.75;;;;;;;;;;5071713;28;20029;-81
2024/02/21 06:22:15;;;;;;;6.38;2.83;;;;;;;;;;5069889;28;20532;-79
2024/02/21 06:24:41;;;;;;;10.65;4.25;;;;;;;;;;5070586;28;20033;-82
2024/02/21 06:27:07;;;;;;;5.72;3.75;;;;;;;;;;5075037;28;20047;-80
2024/02/21 06:29:34;;;;;;;7.80;4.03;;;;;;;;;;5073967;28;20137;-80
2024/02/21 06:32:00;;;;;;;9.70;4.67;;;;;;;;;;5085658;28;20053;-80
2024/02/21 06:34:26;;;;;;;5.90;3.80;;;;;;;;;;5084123;28;20255;-81
2024/02/21 06:36:52;;;;;;;14.02;3.75;;;;;;;;;;5084479;28;20429;-81
2024/02/21 06:39:18;;;;;;;4.95;3.28;;;;;;;;;;5079142;28;20016;-80
2024/02/21 06:41:44;;;;;;;5.47;3.55;;;;;;;;;;5083711;28;20081;-80
2024/02/21 06:44:10;;;;;;;7.03;3.38;;;;;;;;;;5082491;28;20020;-81
2024/02/21 06:46:36;;;;;;;6.65;3.80;;;;;;;;;;5087031;28;20119;-80
2024/02/21 06:49:05;;;;;;;15.85;3.45;;;3.20;99.90;;;;;;5086803;28;20036;-80
2024/02/21 06:51:31;;;;;;;15.85;4.78;;;;;;;;;;5086264;28;20024;-80
2024/02/21 06:53:57;;;;;;;6.10;5.40;;;;;;;;;;5087244;28;20055;-78
2024/02/21 06:56:28;;;;;;;6.35;3.92;;;3.50;99.90;;;;;;5080649;28;20021;-80
2024/02/21 06:58:55;;;;;;;7.88;4.30;;;6.30;99.90;;;;;;5070349;28;20032;-80
2024/02/21 07:01:21;;;;;;;10.30;3.20;;;;;;;;;;5067900;28;20031;-80
2024/02/21 07:03:47;;;;;;;8.98;3.10;;;;;;;;;;5081004;28;20028;-80
2024/02/21 07:06:13;;;;;;;8.15;3.45;;;;;;;;;;5079164;28;20093;-80
2024/02/21 07:08:39;;;;;;;7.78;4.97;;;;;;;;;;5074288;28;20040;-80
2024/02/21 07:11:05;;;;;;;5.57;2.97;;;3.90;99.90;;;;;;5077931;28;20426;-80
2024/02/21 07:13:31;;;;;;;10.27;4.57;;;;;;;;;;5079766;28;20036;-80
2024/02/21 07:15:57;;;;;;;11.52;4.18;;;;;;;;;;5059724;28;20398;-80
2024/02/21 07:18:25;;;;;;;5.78;3.90;;;;;;;;;;5054995;28;20486;-80
2024/02/21 07:20:51;;;;;;;;;;;4.50;99.90;;;;;;5083098;28;20028;-80
2024/02/21 07:23:17;;;;;;;8.85;3.92;;;;;;;;;;5088122;28;19998;-79
2024/02/21 07:25:43;;;;;;;14.40;7.00;;;;;;;;;;5076914;28;20099;-79
2024/02/21 07:28:09;;;;;;;12.70;4.90;;;;;;;;;;5077398;28;20048;-77
2024/02/21 07:30:35;;;;;;;10.95;5.30;;;4.90;99.90;;;;;;5072253;28;20016;-77
2024/02/21 07:33:00;;;;;;;25.27;6.05;;;;;;;;;;5071924;28;20038;-77
2024/02/21 07:35:26;;;;;;;4.75;3.65;;;;;;;;;;5086982;28;20039;-79
2024/02/21 07:37:52;;;;;;;8.18;3.55;;;;;;;;;;5077684;28;20071;-79
2024/02/21 07:40:18;;;;;;;14.43;5.63;;;;;;;;;;5078713;28;20043;-78
2024/02/21 07:42:45;;;;;;;5.68;2.63;;;;;;;;;;5071721;28;20020;-78
2024/02/21 07:45:11;;;;;;;6.45;3.85;;;;;;;;;;5078920;28;20115;-78
2024/02/21 07:47:37;;;;;;;7.25;3.97;;;6.20;97.70;;;;;;5077810;28;20044;-78
2024/02/21 07:50:03;;;;;;;7.13;3.95;;;6.20;97.20;;;;;;5063848;28;20055;-78
2024/02/21 07:52:29;;;;;;;10.07;4.90;;;;;;;;;;5071523;28;20587;-78
2024/02/21 07:54:55;;;;;;;7.40;4.70;;;6.20;99.90;;;;;;5075088;28;20031;-78
2024/02/21 07:57:21;;;;;;;11.68;5.28;;;;;;;;;;5081891;28;20028;-78
2024/02/21 07:59:47;;;;;;;7.65;3.75;;;;;;;;;;5079771;28;20541;-78
2024/02/21 08:02:16;;;;;;;9.25;3.90;;;5.80;96.70;;;;;;5073132;28;20507;-78
2024/02/21 08:04:43;;;;;;;5.97;3.10;;;;;;;;;;5073674;28;20505;-79
2024/02/21 08:07:10;;;;;;;27.02;5.28;;;6.30;96.80;;;;;;5076897;28;20405;-79
2024/02/21 08:09:37;;;;;;;10.43;5.03;;;;;;;;;;5063094;28;20025;-80
2024/02/21 08:12:04;;;;;;;;;;;6.50;96.50;;;;;;5072207;28;20493;-80
2024/02/21 08:14:30;;;;;;;16.67;5.85;;;;;;;;;;5084884;28;19939;-79
2024/02/21 08:16:55;;;;;;;12.73;5.85;;;;;;;;;;5077890;28;20089;-78
2024/02/21 08:19:22;;;;;;;4.85;3.92;;;;;;;;;;5073216;28;20032;-81
2024/02/21 08:21:48;;;;;;;7.65;4.78;;;;;;;;;;5061458;28;20044;-82
2024/02/21 08:24:14;;;;;;;8.13;4.93;;;;;;;;;;5082576;28;20028;-82
2024/02/21 08:26:46;;;;;;;10.05;5.63;;;9.40;93.30;;;;;;5071987;28;20028;-82
2024/02/21 08:29:12;;;;;;;10.13;5.38;;;;;;;;;;5071513;28;20047;-82
2024/02/21 08:31:38;;;;;;;7.50;4.15;;;;;;;;;;5071455;28;20020;-82
2024/02/21 08:34:04;;;;;;;5.10;4.35;;;;;;;;;;5086659;28;20491;-82
2024/02/21 08:36:34;;;;;;;7.70;3.60;;;10.20;86.00;;;;;;5070371;28;20016;-82
2024/02/21 08:39:03;;;;;;;7.88;4.22;;;10.90;83.30;;;;;;5069292;28;20035;-83
2024/02/21 08:41:31;;;;;;;5.60;3.40;;;11.90;79.10;;;;;;5071870;28;20020;-82
2024/02/21 08:43:57;;;;;;;34.83;12.85;;;;;;;;;;5078680;28;20060;-82
2024/02/21 08:46:26;;;;;;;57.30;21.27;;;13.30;72.40;;;;;;5075125;28;20020;-82
2024/02/21 08:48:52;;;;;;;27.60;14.27;;;;;;;;;;5065122;28;20033;-80
2024/02/21 08:51:19;;;;;;;14.38;8.05;;;;;;;;;;5070102;28;20107;-82
2024/02/21 08:53:45;;;;;;;13.77;7.47;;;;;;;;;;5068917;28;20731;-81
2024/02/21 08:56:11;;;;;;;6.10;4.20;;;;;;;;;;5070331;28;20021;-81
2024/02/21 08:58:37;;;;;;;8.38;4.30;;;;;;;;;;5069356;28;20415;-81
2024/02/21 09:01:04;;;;;;;7.40;3.88;;;19.60;58.90;;;;;;5070179;28;20032;-82
2024/02/21 09:03:32;;;;;;;9.32;5.40;;;21.20;55.80;;;;;;5069303;28;20449;-81
2024/02/21 09:05:59;;;;;;;4.95;3.55;;;;;;;;;;5070345;28;20405;-81
2024/02/21 09:08:24;;;;;;;6.57;3.92;;;22.10;61.00;;;;;;5068367;28;20032;-82
2024/02/21 09:10:50;;;;;;;6.47;4.00;;;;;;;;;;5069495;28;20558;-81
2024/02/21 09:13:16;;;;;;;3.55;2.80;;;;;;;;;;5068059;28;20028;-80
2024/02/21 09:15:45;;;;;;;4.88;3.45;;;24.40;59.20;;;;;;5074930;28;20051;-80
2024/02/21 09:18:11;;;;;;;4.93;2.55;;;;;;;;;;5062995;28;20058;-81
2024/02/21 09:20:37;;;;;;;11.18;2.92;;;;;;;;;;5068820;28;20032;-79
2024/02/21 09:23:03;;;;;;;6.72;2.60;;;26.20;48.10;;;;;;5069260;28;20051;-79
2024/02/21 09:25:29;;;;;;;5.43;3.30;;;;;;;;;;5071051;28;20020;-81
2024/02/21 09:27:55;;;;;;;3.33;2.33;;;28.10;55.60;;;;;;5073571;28;20383;-80
2024/02/21 09:30:21;;;;;;;5.47;2.85;;;;;;;;;;5085456;28;20023;-79
2024/02/21 09:32:48;;;;;;;3.97;3.03;;;;;;;;;;5087522;28;20400;-81
2024/02/21 09:35:14;;;;;;;5.97;3.33;;;;;;;;;;5086112;28;20039;-80
2024/02/21 09:37:40;;;;;;;6.27;2.43;;;;;;;;;;5086650;28;20028;-78
2024/02/21 09:40:06;;;;;;;5.53;1.85;;;25.20;43.50;;;;;;5081271;28;20058;-80
2024/02/21 09:42:41;;;;;;;2.87;1.70;;;24.30;44.00;;;;;;5077466;28;20029;-79
2024/02/21 09:45:24;;;;;;;2.78;2.30;;;23.60;44.50;;;;;;5072663;28;20027;-79
2024/02/21 09:48:29;;;;;;;4.57;2.17;;;22.60;43.50;;;;;;5073980;28;20040;-79
2024/02/21 09:50:55;;;;;;;3.25;2.03;;;;;;;;;;5077254;28;20074;-78
2024/02/21 09:53:24;;;;;;;7.57;3.97;;;21.20;63.10;;;;;;5074030;28;20416;-78
2024/02/21 09:55:50;;;;;;;6.05;2.90;;;20.90;55.90;;;;;;5066765;28;20535;-78
2024/02/21 09:58:17;;;;;;;4.78;1.77;;;;;;;;;;5067212;28;20059;-78
2024/02/21 10:00:42;;;;;;;2.92;2.03;;;19.90;62.80;;;;;;5069929;28;20071;-80
2024/02/21 10:03:08;;;;;;;3.50;1.95;;;;;;;;;;5074903;28;20548;-83
2024/02/21 10:05:37;;;;;;;11.68;2.55;;;19.80;46.70;;;;;;5074015;28;20032;-80
2024/02/21 10:08:04;;;;;;;7.10;3.00;;;20.30;64.10;;;;;;5073532;28;20051;-82
2024/02/21 10:10:31;;;;;;;2.47;2.22;;;;;;;;;;5074601;28;20108;-82
2024/02/21 10:12:57;;;;;;;5.60;2.28;;;;;;;;;;5073679;28;20081;-82
2024/02/21 10:15:24;;;;;;;4.57;2.80;;;20.00;44.70;;;;;;5074469;28;20024;-82
2024/02/21 10:18:01;;;;;;;9.85;4.00;;;20.10;44.90;;;;;;5077093;28;20070;-82
2024/02/21 10:20:27;;;;;;;5.88;2.20;;;;;;;;;;5086632;28;20011;-82
2024/02/21 10:23:07;;;;;;;3.20;2.03;;;20.10;60.40;;;;;;5090003;28;20485;-81
2024/02/21 10:25:34;;;;;;;13.38;3.03;;;;;;;;;;5084090;28;20028;-81
2024/02/21 10:28:00;;;;;;;6.28;2.70;;;;;;;;;;5082737;28;20036;-82
2024/02/21 10:30:26;;;;;;;2.95;2.53;;;;;;;;;;5085435;28;20089;-82
2024/02/21 10:32:55;;;;;;;3.10;2.08;;;18.70;45.20;;;;;;5072303;28;20549;-81
2024/02/21 10:35:30;;;;;;;5.85;1.85;;;18.10;45.90;;;;;;5069014;28;20032;-82
2024/02/21 10:37:56;;;;;;;3.60;2.08;;;;;;;;;;5077185;28;20021;-82
2024/02/21 10:40:34;;;;;;;5.20;2.25;;;17.50;47.90;;;;;;5078104;28;20106;-79
2024/02/21 10:43:00;;;;;;;;;;;17.50;48.40;;;;;;5076121;28;20016;-79
2024/02/21 10:45:34;;;;;;;6.30;2.27;;;16.90;48.50;;;;;;5082707;28;19912;-79
2024/02/21 10:48:13;;;;;;;7.80;1.27;;;16.50;48.80;;;;;;5081729;28;20039;-90
2024/02/21 10:51:00;;;;;;;3.03;1.67;;;16.00;67.00;;;;;;5073890;28;20036;-79
2024/02/21 10:53:41;;;;;;;10.15;1.63;;;16.20;50.20;;;;;;5072737;28;20028;-78
2024/02/21 10:56:42;;;;;;;16.70;1.77;;;15.80;69.50;;;;;;5074373;28;20027;-79
2024/02/21 10:59:08;;;;;;;5.82;2.53;;;;;;;;;;5028943;28;20033;-79
2024/02/21 11:01:38;;;;;;;6.20;1.67;;;;;;;;;;5031315;28;20120;-79
2024/02/21 11:04:11;;;;;;;3.03;1.50;;;15.40;50.40;;;;;;5037319;28;20025;-79
2024/02/21 11:06:39;;;;;;;6.53;1.70;;;15.30;50.50;;;;;;5035973;28;20299;-79
2024/02/21 11:09:05;;;;;;;;;;;14.30;50.40;;;;;;5038203;28;20036;-79
2024/02/21 11:11:40;;;;;;;4.95;2.25;;;15.60;50.90;;;;;;5035249;28;19913;-79
2024/02/21 11:14:10;;;;;;;3.47;1.90;;;15.30;50.70;;;;;;5037809;28;20057;-79
2024/02/21 11:16:40;;;;;;;9.27;2.28;;;15.50;50.30;;;;;;5033619;28;20402;-79
2024/02/21 11:19:23;;;;;;;4.82;1.92;;;15.50;58.90;;;;;;5032867;28;20116;-78
2024/02/21 11:21:49;;;;;;;5.45;2.63;;;16.00;50.20;;;;;;5038371;28;20017;-78
2024/02/21 11:24:30;;;;;;;7.30;2.45;;;16.20;69.20;;;;;;5039688;28;20112;-78
2024/02/21 11:26:57;;;;;;;2.10;1.17;;;;;;;;;;5028908;28;20037;-78
2024/02/21 11:29:26;;;;;;;4.55;1.70;;;16.00;54.60;;;;;;5027685;28;20442;-78
2024/02/21 11:31:52;;;;;;;1.65;1.55;;;;;;;;;;5028062;28;20029;-78
2024/02/21 11:34:19;;;;;;;3.72;2.03;;;15.80;49.50;;;;;;5040634;28;20541;-78
2024/02/21 11:36:49;;;;;;;3.45;1.83;;;15.70;49.30;;;;;;5065922;28;20024;-79
2024/02/21 11:39:23;;;;;;;4.80;1.33;;;15.40;49.20;;;;;;5066387;28;20464;-79
2024/02/21 11:42:01;;;;;;;1.60;1.50;;;15.30;49.90;;;;;;5068735;28;20115;-79
2024/02/21 11:44:27;;;;;;;5.05;1.88;;;;;;;;;;5080077;28;20056;-78
2024/02/21 11:46:53;;;;;;;2.42;1.20;;;;;;;;;;5077358;28;20544;-78
2024/02/21 11:49:19;;;;;;;5.20;1.83;;;16.10;69.10;;;;;;5072198;28;20112;-78
2024/02/21 11:51:45;;;;;;;3.60;1.73;;;;;;;;;;5072317;28;20509;-78
2024/02/21 11:54:13;;;;;;;5.82;2.08;;;16.40;49.40;;;;;;5074703;28;20056;-78
2024/02/21 11:56:39;;;;;;;3.97;1.35;;;;;;;;;;5077263;28;20488;-78
2024/02/21 11:59:06;;;;;;;5.18;2.20;;;;;;;;;;5084835;28;20036;-78
2024/02/21 12:01:32;;;;;;;7.18;1.85;;;;;;;;;;5069778;28;20036;-78
2024/02/21 12:03:58;;;;;;;3.30;1.30;;;;;;;;;;5076451;28;20409;-78
2024/02/21 12:06:24;;;;;;;6.80;1.73;;;;;;;;;;5085491;28;20447;-79
2024/02/21 12:08:50;;;;;;;4.38;1.48;;;;;;;;;;5080794;28;20073;-79
2024/02/21 12:11:22;;;;;;;4.07;1.52;;;16.60;49.10;;;;;;5084307;28;20069;-82
2024/02/21 12:14:05;;;;;;;4.47;2.03;;;16.70;49.00;;;;;;5077167;28;20467;-80
2024/02/21 12:16:32;;;;;;;5.53;3.00;;;16.90;49.20;;;;;;5081102;28;20086;-79
2024/02/21 12:19:01;;;;;;;4.60;2.13;;;16.90;48.90;;;;;;5074067;28;20112;-76
2024/02/21 12:21:29;;;;;;;3.95;1.65;;;16.90;48.80;;;;;;5067680;28;20040;-78
2024/02/21 12:23:56;;;;;;;7.32;2.00;;;;;;;;;;5080540;28;20016;-79
2024/02/21 12:26:22;;;;;;;3.72;1.50;;;16.80;48.70;;;;;;5073625;28;20366;-79
2024/02/21 12:28:48;;;;;;;4.55;1.85;;;;;;;;;;5071721;28;20553;-81
2024/02/21 12:31:16;;;;;;;6.90;2.05;;;;;;;;;;5070820;28;20033;-78
2024/02/21 12:33:42;;;;;;;;;;;16.80;49.20;;;;;;5073608;28;20210;-78
2024/02/21 12:36:08;;;;;;;3.13;1.50;;;;;;;;;;5068373;28;19912;-78
2024/02/21 12:38:34;;;;;;;5.40;1.93;;;;;;;;;;5068596;28;20169;-78
2024/02/21 12:41:01;;;;;;;2.92;1.70;;;16.60;68.50;;;;;;5078717;28;20393;-78
2024/02/21 12:43:27;;;;;;;7.82;1.80;;;;;;;;;;5054924;28;20024;-79
2024/02/21 12:45:53;;;;;;;3.28;1.98;;;16.70;67.70;;;;;;5059993;28;20036;-78
2024/02/21 12:48:19;;;;;;;3.30;1.35;;;;;;;;;;5048028;28;20508;-78
2024/02/21 12:50:51;;;;;;;9.73;1.92;;;17.20;48.70;;;;;;5081237;28;20028;-78
2024/02/21 12:53:21;;;;;;;4.70;2.45;;;17.50;48.60;;;;;;5067013;28;20039;-78
2024/02/21 12:55:47;;;;;;;6.80;2.03;;;;;;;;;;5082375;28;20088;-78
2024/02/21 12:58:13;;;;;;;6.63;2.10;;;;;;;;;;5067173;28;20039;-78
2024/02/21 13:00:39;;;;;;;5.75;2.83;;;17.80;67.10;;;;;;5056968;28;20025;-74
2024/02/21 13:03:05;;;;;;;5.55;1.63;;;;;;;;;;5073984;28;20044;-75
2024/02/21 13:05:32;;;;;;;4.28;2.03;;;;;;;;;;5075499;28;20031;-80
2024/02/21 13:07:58;;;;;;;4.35;2.95;;;18.20;47.60;;;;;;5074899;28;20048;-78
2024/02/21 13:10:24;;;;;;;2.75;1.70;;;;;;;;;;5072283;28;20055;-79
2024/02/21 13:12:50;;;;;;;5.63;1.67;;;;;;;;;;5076415;28;20039;-79
2024/02/21 13:15:17;;;;;;;4.50;2.22;;;;;;;;;;5075507;28;20024;-79
2024/02/21 13:17:44;;;;;;;5.82;2.17;;;18.30;47.70;;;;;;5077964;28;20052;-78
2024/02/21 13:20:10;;;;;;;1.97;1.47;;;18.20;47.90;;;;;;5067222;28;20024;-80
2024/02/21 13:22:36;;;;;;;8.10;1.97;;;18.30;48.30;;;;;;5071564;28;20032;-80
2024/02/21 13:25:02;;;;;;;3.90;1.70;;;;;;;;;;5069165;28;20029;-80
2024/02/21 13:27:28;;;;;;;2.90;2.20;;;;;;;;;;5077599;28;20439;-83
2024/02/21 13:29:54;;;;;;;4.45;1.60;;;;;;;;;;5075883;28;20039;-82
2024/02/21 13:32:20;;;;;;;5.13;1.90;;;;;;;;;;5058925;28;20043;-82
2024/02/21 13:34:46;;;;;;;2.80;1.73;;;;;;;;;;5069438;28;20056;-80
2024/02/21 13:37:13;;;;;;;4.38;1.73;;;;;;;;;;5068821;28;20055;-81
2024/02/21 13:39:39;;;;;;;7.72;1.90;;;;;;;;;;5069239;28;20552;-83
2024/02/21 13:42:05;;;;;;;4.28;2.28;;;17.00;49.80;;;;;;5085487;28;20085;-81
2024/02/21 13:44:34;;;;;;;3.58;2.13;;;16.90;50.00;;;;;;5070141;28;20081;-80
2024/02/21 13:47:00;;;;;;;3.97;1.60;;;;;;;;;;5073157;28;20420;-83
2024/02/21 13:49:26;;;;;;;2.88;1.88;;;;;;;;;;5076220;28;20052;-78
2024/02/21 13:51:52;;;;;;;7.13;2.78;;;;;;;;;;5079992;28;20110;-78
2024/02/21 13:54:19;;;;;;;12.82;2.42;;;;;;;;;;5081649;28;20562;-83
2024/02/21 13:56:45;;;;;;;5.00;1.70;;;16.50;50.80;;;;;;5072980;28;20029;-81